sensor_id;sensor_type;location;lat;lon;timestamp;pressure;altitude;pressure_sealevel;temperature;humidity
74633;BME280;63139;52.018;8.552;2023-03-29T00:00:28;100778.44;;;6.34;66.55
74633;BME280;63139;52.018;8.552;2023-03-29T00:02:56;100776.06;;;6.31;67.93
74633;BME280;63139;52.018;8.552;2023-03-29T00:05:25;100770.97;;;6.29;67.38
74633;BME280;63139;52.018;8.552;2023-03-29T00:07:52;100770.81;;;6.31;67.21
74633;BME280;63139;52.018;8.552;2023-03-29T00:10:28;100768.47;;;6.28;68.88
74633;BME280;63139;52.018;8.552;2023-03-29T00:12:57;100766.09;;;6.24;68.62
74633;BME280;63139;52.018;8.552;2023-03-29T00:15:25;100758.19;;;6.24;68.11
74633;BME280;63139;52.018;8.552;2023-03-29T00:17:53;100760.13;;;6.22;69.22
74633;BME280;63139;52.018;8.552;2023-03-29T00:20:21;100758.47;;;6.21;69.72
74633;BME280;63139;52.018;8.552;2023-03-29T00:22:49;100754.06;;;6.22;69.67
74633;BME280;63139;52.018;8.552;2023-03-29T00:25:16;100745.19;;;6.23;69.13
74633;BME280;63139;52.018;8.552;2023-03-29T00:27:45;100736.47;;;6.22;69.74
74633;BME280;63139;52.018;8.552;2023-03-29T00:30:13;100747.13;;;6.21;70.94
74633;BME280;63139;52.018;8.552;2023-03-29T00:32:42;100735.78;;;6.20;70.61
74633;BME280;63139;52.018;8.552;2023-03-29T00:35:10;100736.88;;;6.18;70.75
74633;BME280;63139;52.018;8.552;2023-03-29T00:37:38;100738.78;;;6.16;71.05
74633;BME280;63139;52.018;8.552;2023-03-29T00:40:09;100747.94;;;6.12;71.11
74633;BME280;63139;52.018;8.552;2023-03-29T00:42:38;100739.22;;;6.11;71.64
74633;BME280;63139;52.018;8.552;2023-03-29T00:45:16;100742.91;;;6.09;72.22
74633;BME280;63139;52.018;8.552;2023-03-29T00:47:46;100732.41;;;6.09;71.89
74633;BME280;63139;52.018;8.552;2023-03-29T00:50:17;100722.19;;;6.06;72.11
74633;BME280;63139;52.018;8.552;2023-03-29T00:52:51;100720.75;;;6.02;72.54
74633;BME280;63139;52.018;8.552;2023-03-29T00:55:23;100716.88;;;5.96;72.32
74633;BME280;63139;52.018;8.552;2023-03-29T00:57:52;100707.63;;;5.92;73.14
74633;BME280;63139;52.018;8.552;2023-03-29T01:00:27;100705.38;;;5.88;73.40
74633;BME280;63139;52.018;8.552;2023-03-29T01:02:58;100695.94;;;5.85;72.89
74633;BME280;63139;52.018;8.552;2023-03-29T01:05:30;100688.56;;;5.79;74.08
74633;BME280;63139;52.018;8.552;2023-03-29T01:08:02;100679.41;;;5.73;74.48
74633;BME280;63139;52.018;8.552;2023-03-29T01:10:35;100671.81;;;5.70;74.16
74633;BME280;63139;52.018;8.552;2023-03-29T01:13:09;100671.13;;;5.68;74.85
74633;BME280;63139;52.018;8.552;2023-03-29T01:15:40;100671.81;;;5.70;74.11
74633;BME280;63139;52.018;8.552;2023-03-29T01:18:11;100673.88;;;5.67;74.99
74633;BME280;63139;52.018;8.552;2023-03-29T01:20:45;100665.28;;;5.65;74.29
74633;BME280;63139;52.018;8.552;2023-03-29T01:23:33;100667.78;;;5.66;74.77
74633;BME280;63139;52.018;8.552;2023-03-29T01:26:13;100654.78;;;5.65;74.50
74633;BME280;63139;52.018;8.552;2023-03-29T01:28:49;100641.78;;;5.63;74.46
74633;BME280;63139;52.018;8.552;2023-03-29T01:31:21;100640.97;;;5.63;74.44
74633;BME280;63139;52.018;8.552;2023-03-29T01:33:56;100635.84;;;5.61;74.63
74633;BME280;63139;52.018;8.552;2023-03-29T01:36:28;100650.63;;;5.62;74.30
74633;BME280;63139;52.018;8.552;2023-03-29T01:39:02;100642.88;;;5.61;74.22
74633;BME280;63139;52.018;8.552;2023-03-29T01:41:38;100642.06;;;5.60;74.55
74633;BME280;63139;52.018;8.552;2023-03-29T01:44:15;100631.66;;;5.59;74.76
74633;BME280;63139;52.018;8.552;2023-03-29T01:46:46;100628.94;;;5.60;74.50
74633;BME280;63139;52.018;8.552;2023-03-29T01:49:20;100626.41;;;5.59;74.62
74633;BME280;63139;52.018;8.552;2023-03-29T01:51:52;100611.63;;;5.58;75.34
74633;BME280;63139;52.018;8.552;2023-03-29T01:54:24;100611.63;;;5.58;74.52
74633;BME280;63139;52.018;8.552;2023-03-29T01:56:56;100609.28;;;5.55;74.21
74633;BME280;63139;52.018;8.552;2023-03-29T01:59:28;100605.13;;;5.52;74.56
74633;BME280;63139;52.018;8.552;2023-03-29T02:01:59;100607.31;;;5.47;74.41
74633;BME280;63139;52.018;8.552;2023-03-29T02:04:31;100606.59;;;5.45;74.36
74633;BME280;63139;52.018;8.552;2023-03-29T02:07:02;100600.41;;;5.46;74.30
74633;BME280;63139;52.018;8.552;2023-03-29T02:09:32;100586.56;;;5.44;75.19
74633;BME280;63139;52.018;8.552;2023-03-29T02:12:04;100588.22;;;5.45;74.46
74633;BME280;63139;52.018;8.552;2023-03-29T02:14:34;100578.28;;;5.48;74.76
74633;BME280;63139;52.018;8.552;2023-03-29T02:17:14;100580.78;;;5.50;75.08
74633;BME280;63139;52.018;8.552;2023-03-29T02:19:44;100579.81;;;5.51;74.79
74633;BME280;63139;52.018;8.552;2023-03-29T02:22:21;100567.66;;;5.50;75.22
74633;BME280;63139;52.018;8.552;2023-03-29T02:24:53;100570.03;;;5.53;74.49
74633;BME280;63139;52.018;8.552;2023-03-29T02:27:25;100558.56;;;5.54;74.57
74633;BME280;63139;52.018;8.552;2023-03-29T02:29:55;100550.81;;;5.53;74.95
74633;BME280;63139;52.018;8.552;2023-03-29T02:32:27;100546.53;;;5.52;74.59
74633;BME280;63139;52.018;8.552;2023-03-29T02:34:59;100543.59;;;5.45;74.66
74633;BME280;63139;52.018;8.552;2023-03-29T02:37:31;100561.72;;;5.48;74.12
74633;BME280;63139;52.018;8.552;2023-03-29T02:40:02;100559.09;;;5.48;73.95
74633;BME280;63139;52.018;8.552;2023-03-29T02:42:38;100556.31;;;5.40;74.89
74633;BME280;63139;52.018;8.552;2023-03-29T02:45:10;100571.94;;;5.51;74.02
74633;BME280;63139;52.018;8.552;2023-03-29T02:47:43;100563.69;;;5.56;74.24
74633;BME280;63139;52.018;8.552;2023-03-29T02:50:11;100553.97;;;5.56;74.19
74633;BME280;63139;52.018;8.552;2023-03-29T02:52:43;100551.22;;;5.58;73.91
74633;BME280;63139;52.018;8.552;2023-03-29T02:55:15;100557.72;;;5.63;73.17
74633;BME280;63139;52.018;8.552;2023-03-29T02:57:44;100551.25;;;5.67;73.35
74633;BME280;63139;52.018;8.552;2023-03-29T03:00:14;100545.75;;;5.70;73.12
74633;BME280;63139;52.018;8.552;2023-03-29T03:02:46;100536.75;;;5.73;73.49
74633;BME280;63139;52.018;8.552;2023-03-29T03:05:16;100535.66;;;5.75;73.20
74633;BME280;63139;52.018;8.552;2023-03-29T03:07:45;100529.31;;;5.78;73.28
74633;BME280;63139;52.018;8.552;2023-03-29T03:10:13;100526.53;;;5.79;73.46
74633;BME280;63139;52.018;8.552;2023-03-29T03:12:41;100509.53;;;5.74;73.30
74633;BME280;63139;52.018;8.552;2023-03-29T03:15:09;100494.34;;;5.77;73.49
74633;BME280;63139;52.018;8.552;2023-03-29T03:17:39;100516.03;;;5.79;73.06
74633;BME280;63139;52.018;8.552;2023-03-29T03:20:08;100504.56;;;5.80;73.03
74633;BME280;63139;52.018;8.552;2023-03-29T03:22:41;100500.84;;;5.83;72.61
74633;BME280;63139;52.018;8.552;2023-03-29T03:25:11;100495.44;;;5.84;72.86
74633;BME280;63139;52.018;8.552;2023-03-29T03:27:39;100500.69;;;5.84;72.77
74633;BME280;63139;52.018;8.552;2023-03-29T03:30:08;100498.91;;;5.85;73.03
74633;BME280;63139;52.018;8.552;2023-03-29T03:32:49;100498.06;;;5.84;73.29
74633;BME280;63139;52.018;8.552;2023-03-29T03:35:40;100493.91;;;5.82;73.67
74633;BME280;63139;52.018;8.552;2023-03-29T03:38:08;100487.69;;;5.83;73.21
74633;BME280;63139;52.018;8.552;2023-03-29T03:40:36;100492.00;;;5.84;73.33
74633;BME280;63139;52.018;8.552;2023-03-29T03:43:04;100502.34;;;5.85;72.78
74633;BME280;63139;52.018;8.552;2023-03-29T03:45:32;100497.81;;;5.88;73.12
74633;BME280;63139;52.018;8.552;2023-03-29T03:48:09;100487.88;;;5.91;73.02
74633;BME280;63139;52.018;8.552;2023-03-29T03:50:47;100500.03;;;5.92;73.00
74633;BME280;63139;52.018;8.552;2023-03-29T03:53:16;100483.81;;;5.87;72.81
74633;BME280;63139;52.018;8.552;2023-03-29T03:56:05;100467.22;;;5.86;73.33
74633;BME280;63139;52.018;8.552;2023-03-29T03:58:44;100472.47;;;5.86;73.33
74633;BME280;63139;52.018;8.552;2023-03-29T04:01:13;100479.41;;;5.88;73.01
74633;BME280;63139;52.018;8.552;2023-03-29T04:03:52;100485.38;;;5.90;72.69
74633;BME280;63139;52.018;8.552;2023-03-29T04:06:22;100478.03;;;5.93;72.77
74633;BME280;63139;52.018;8.552;2023-03-29T04:09:20;100485.78;;;5.95;72.81
74633;BME280;63139;52.018;8.552;2023-03-29T04:11:58;100483.84;;;5.97;73.28
74633;BME280;63139;52.018;8.552;2023-03-29T04:14:27;100487.31;;;5.97;73.07
74633;BME280;63139;52.018;8.552;2023-03-29T04:17:04;100481.09;;;5.98;72.86
74633;BME280;63139;52.018;8.552;2023-03-29T04:19:53;100487.03;;;6.00;72.73
74633;BME280;63139;52.018;8.552;2023-03-29T04:22:22;100480.81;;;6.01;73.11
74633;BME280;63139;52.018;8.552;2023-03-29T04:24:50;100475.97;;;5.97;72.96
74633;BME280;63139;52.018;8.552;2023-03-29T04:27:37;100486.75;;;6.03;72.79
74633;BME280;63139;52.018;8.552;2023-03-29T04:30:16;100482.19;;;6.05;72.84
74633;BME280;63139;52.018;8.552;2023-03-29T04:33:07;100482.91;;;6.07;72.76
74633;BME280;63139;52.018;8.552;2023-03-29T04:35:38;100485.53;;;6.07;72.78
74633;BME280;63139;52.018;8.552;2023-03-29T04:38:10;100485.38;;;6.09;72.62
74633;BME280;63139;52.018;8.552;2023-03-29T04:40:39;100484.25;;;6.11;72.60
74633;BME280;63139;52.018;8.552;2023-03-29T04:43:11;100477.34;;;6.10;72.16
74633;BME280;63139;52.018;8.552;2023-03-29T04:45:47;100483.16;;;6.14;72.64
74633;BME280;63139;52.018;8.552;2023-03-29T04:48:32;100486.75;;;6.13;72.21
74633;BME280;63139;52.018;8.552;2023-03-29T04:51:04;100479.56;;;6.15;72.28
74633;BME280;63139;52.018;8.552;2023-03-29T04:53:32;100474.31;;;6.15;72.15
74633;BME280;63139;52.018;8.552;2023-03-29T04:56:00;100483.69;;;6.17;72.73
74633;BME280;63139;52.018;8.552;2023-03-29T04:58:51;100476.66;;;6.18;72.25
74633;BME280;63139;52.018;8.552;2023-03-29T05:01:20;100472.09;;;6.20;72.51
74633;BME280;63139;52.018;8.552;2023-03-29T05:03:55;100474.41;;;6.23;72.17
74633;BME280;63139;52.018;8.552;2023-03-29T05:06:31;100469.03;;;6.24;72.32
74633;BME280;63139;52.018;8.552;2023-03-29T05:08:58;100461.97;;;6.25;72.05
74633;BME280;63139;52.018;8.552;2023-03-29T05:11:31;100447.47;;;6.21;72.19
74633;BME280;63139;52.018;8.552;2023-03-29T05:13:59;100453.81;;;6.28;72.21
74633;BME280;63139;52.018;8.552;2023-03-29T05:16:32;100447.44;;;6.31;72.10
74633;BME280;63139;52.018;8.552;2023-03-29T05:19:01;100452.41;;;6.34;71.99
74633;BME280;63139;52.018;8.552;2023-03-29T05:21:32;100449.66;;;6.35;71.90
74633;BME280;63139;52.018;8.552;2023-03-29T05:24:05;100449.91;;;6.42;71.67
74633;BME280;63139;52.018;8.552;2023-03-29T05:26:56;100448.50;;;6.47;71.47
74633;BME280;63139;52.018;8.552;2023-03-29T05:29:26;100442.53;;;6.55;71.48
74633;BME280;63139;52.018;8.552;2023-03-29T05:32:06;100442.09;;;6.59;71.39
74633;BME280;63139;52.018;8.552;2023-03-29T05:34:34;100437.38;;;6.63;71.12
74633;BME280;63139;52.018;8.552;2023-03-29T05:37:03;100435.31;;;6.67;71.65
74633;BME280;63139;52.018;8.552;2023-03-29T05:39:42;100437.50;;;6.71;71.13
74633;BME280;63139;52.018;8.552;2023-03-29T05:42:10;100427.22;;;6.78;70.98
74633;BME280;63139;52.018;8.552;2023-03-29T05:45:07;100435.75;;;6.89;70.44
74633;BME280;63139;52.018;8.552;2023-03-29T05:47:36;100432.00;;;6.92;70.28
74633;BME280;63139;52.018;8.552;2023-03-29T05:50:05;100440.28;;;6.97;70.58
74633;BME280;63139;52.018;8.552;2023-03-29T05:52:37;100439.88;;;7.01;70.31
74633;BME280;63139;52.018;8.552;2023-03-29T05:55:07;100433.31;;;7.06;70.17
74633;BME280;63139;52.018;8.552;2023-03-29T05:57:36;100434.69;;;7.10;70.21
74633;BME280;63139;52.018;8.552;2023-03-29T06:00:05;100437.19;;;7.11;70.44
74633;BME280;63139;52.018;8.552;2023-03-29T06:02:43;100434.25;;;7.14;70.17
74633;BME280;63139;52.018;8.552;2023-03-29T06:05:11;100440.06;;;7.18;70.24
74633;BME280;63139;52.018;8.552;2023-03-29T06:07:54;100445.16;;;7.19;69.97
74633;BME280;63139;52.018;8.552;2023-03-29T06:10:42;100443.22;;;7.21;69.90
74633;BME280;63139;52.018;8.552;2023-03-29T06:13:34;100436.69;;;7.25;69.88
74633;BME280;63139;52.018;8.552;2023-03-29T06:16:03;100427.78;;;7.26;70.05
74633;BME280;63139;52.018;8.552;2023-03-29T06:18:31;100425.00;;;7.28;70.02
74633;BME280;63139;52.018;8.552;2023-03-29T06:20:59;100418.50;;;7.32;69.78
74633;BME280;63139;52.018;8.552;2023-03-29T06:23:31;100424.28;;;7.35;69.53
74633;BME280;63139;52.018;8.552;2023-03-29T06:25:59;100417.19;;;7.36;69.61
74633;BME280;63139;52.018;8.552;2023-03-29T06:28:27;100416.91;;;7.39;69.42
74633;BME280;63139;52.018;8.552;2023-03-29T06:30:55;100423.38;;;7.45;69.53
74633;BME280;63139;52.018;8.552;2023-03-29T06:33:31;100414.03;;;7.50;69.14
74633;BME280;63139;52.018;8.552;2023-03-29T06:36:11;100414.97;;;7.59;68.99
74633;BME280;63139;52.018;8.552;2023-03-29T06:38:43;100418.22;;;7.70;68.51
74633;BME280;63139;52.018;8.552;2023-03-29T06:41:22;100417.13;;;7.81;68.27
74633;BME280;63139;52.018;8.552;2023-03-29T06:44:05;100426.91;;;7.89;68.15
74633;BME280;63139;52.018;8.552;2023-03-29T06:46:37;100416.44;;;7.97;68.02
74633;BME280;63139;52.018;8.552;2023-03-29T06:49:06;100413.19;;;8.03;68.04
74633;BME280;63139;52.018;8.552;2023-03-29T06:52:06;100399.09;;;8.12;67.79
74633;BME280;63139;52.018;8.552;2023-03-29T06:54:35;100407.91;;;8.21;67.54
74633;BME280;63139;52.018;8.552;2023-03-29T06:57:04;100415.81;;;8.21;67.58
74633;BME280;63139;52.018;8.552;2023-03-29T06:59:33;100431.97;;;8.26;67.69
74633;BME280;63139;52.018;8.552;2023-03-29T07:02:22;100439.59;;;8.29;67.82
74633;BME280;63139;52.018;8.552;2023-03-29T07:04:56;100428.88;;;8.30;67.76
74633;BME280;63139;52.018;8.552;2023-03-29T07:07:29;100423.22;;;8.43;67.53
74633;BME280;63139;52.018;8.552;2023-03-29T07:10:26;100429.06;;;8.54;67.63
74633;BME280;63139;52.018;8.552;2023-03-29T07:13:29;100438.34;;;8.59;67.60
74633;BME280;63139;52.018;8.552;2023-03-29T07:16:01;100436.00;;;8.55;67.65
74633;BME280;63139;52.018;8.552;2023-03-29T07:18:37;100453.50;;;8.56;67.93
74633;BME280;63139;52.018;8.552;2023-03-29T07:21:06;100445.78;;;8.63;67.51
74633;BME280;63139;52.018;8.552;2023-03-29T07:23:34;100450.81;;;8.74;67.52
74633;BME280;63139;52.018;8.552;2023-03-29T07:26:05;100455.94;;;8.84;67.28
74633;BME280;63139;52.018;8.552;2023-03-29T07:28:34;100455.31;;;8.90;67.17
74633;BME280;63139;52.018;8.552;2023-03-29T07:31:04;100450.75;;;9.00;67.14
74633;BME280;63139;52.018;8.552;2023-03-29T07:33:38;100453.75;;;9.13;67.03
74633;BME280;63139;52.018;8.552;2023-03-29T07:36:07;100444.06;;;9.22;67.06
74633;BME280;63139;52.018;8.552;2023-03-29T07:38:36;100449.53;;;9.28;66.94
74633;BME280;63139;52.018;8.552;2023-03-29T07:41:14;100452.53;;;9.33;66.70
74633;BME280;63139;52.018;8.552;2023-03-29T07:44:05;100450.72;;;9.50;66.49
74633;BME280;63139;52.018;8.552;2023-03-29T07:46:35;100446.81;;;9.62;66.06
74633;BME280;63139;52.018;8.552;2023-03-29T07:49:02;100446.31;;;9.75;65.72
74633;BME280;63139;52.018;8.552;2023-03-29T07:51:31;100452.78;;;9.81;65.50
74633;BME280;63139;52.018;8.552;2023-03-29T07:54:04;100452.63;;;9.90;65.34
74633;BME280;63139;52.018;8.552;2023-03-29T07:56:47;100451.13;;;9.88;65.23
74633;BME280;63139;52.018;8.552;2023-03-29T07:59:37;100465.16;;;9.80;65.78
74633;BME280;63139;52.018;8.552;2023-03-29T08:02:19;100462.50;;;9.72;66.07
74633;BME280;63139;52.018;8.552;2023-03-29T08:04:51;100468.78;;;9.71;66.06
74633;BME280;63139;52.018;8.552;2023-03-29T08:07:41;100464.84;;;9.75;65.69
74633;BME280;63139;52.018;8.552;2023-03-29T08:10:17;100467.81;;;9.80;65.93
74633;BME280;63139;52.018;8.552;2023-03-29T08:13:07;100467.13;;;9.78;66.55
74633;BME280;63139;52.018;8.552;2023-03-29T08:15:46;100470.78;;;9.77;66.95
74633;BME280;63139;52.018;8.552;2023-03-29T08:18:36;100473.25;;;9.70;67.65
74633;BME280;63139;52.018;8.552;2023-03-29T08:21:04;100481.84;;;9.72;67.68
74633;BME280;63139;52.018;8.552;2023-03-29T08:23:32;100482.00;;;9.71;67.66
74633;BME280;63139;52.018;8.552;2023-03-29T08:26:08;100472.75;;;9.75;67.55
74633;BME280;63139;52.018;8.552;2023-03-29T08:28:39;100460.53;;;9.82;67.37
74633;BME280;63139;52.018;8.552;2023-03-29T08:31:07;100463.19;;;9.90;67.35
74633;BME280;63139;52.018;8.552;2023-03-29T08:33:39;100458.91;;;10.05;67.02
74633;BME280;63139;52.018;8.552;2023-03-29T08:36:37;100453.47;;;10.23;66.30
74633;BME280;63139;52.018;8.552;2023-03-29T08:39:15;100459.41;;;10.33;66.50
74633;BME280;63139;52.018;8.552;2023-03-29T08:42:00;100449.31;;;10.45;66.21
74633;BME280;63139;52.018;8.552;2023-03-29T08:44:42;100451.09;;;10.61;65.90
74633;BME280;63139;52.018;8.552;2023-03-29T08:47:19;100451.59;;;10.72;65.26
74633;BME280;63139;52.018;8.552;2023-03-29T08:49:54;100462.47;;;10.85;65.28
74633;BME280;63139;52.018;8.552;2023-03-29T08:52:34;100454.81;;;10.90;65.20
74633;BME280;63139;52.018;8.552;2023-03-29T08:55:26;100454.94;;;11.05;64.46
74633;BME280;63139;52.018;8.552;2023-03-29T08:58:16;100448.59;;;11.14;64.18
74633;BME280;63139;52.018;8.552;2023-03-29T09:00:49;100450.56;;;11.20;64.21
74633;BME280;63139;52.018;8.552;2023-03-29T09:03:20;100441.00;;;11.42;63.84
74633;BME280;63139;52.018;8.552;2023-03-29T09:05:55;100443.22;;;11.61;63.11
74633;BME280;63139;52.018;8.552;2023-03-29T09:08:25;100448.81;;;11.75;63.24
74633;BME280;63139;52.018;8.552;2023-03-29T09:11:06;100439.72;;;11.92;62.50
74633;BME280;63139;52.018;8.552;2023-03-29T09:13:44;100440.66;;;11.99;62.60
74633;BME280;63139;52.018;8.552;2023-03-29T09:16:17;100444.66;;;12.18;61.40
74633;BME280;63139;52.018;8.552;2023-03-29T09:18:57;100442.22;;;12.45;61.33
74633;BME280;63139;52.018;8.552;2023-03-29T09:21:32;100440.31;;;12.69;60.91
74633;BME280;63139;52.018;8.552;2023-03-29T09:24:13;100436.75;;;12.76;60.37
74633;BME280;63139;52.018;8.552;2023-03-29T09:27:09;100429.59;;;13.06;59.38
74633;BME280;63139;52.018;8.552;2023-03-29T09:29:51;100433.25;;;13.20;59.40
74633;BME280;63139;52.018;8.552;2023-03-29T09:32:42;100432.81;;;13.52;58.77
74633;BME280;63139;52.018;8.552;2023-03-29T09:35:18;100431.06;;;13.81;59.09
74633;BME280;63139;52.018;8.552;2023-03-29T09:37:50;100433.66;;;13.74;58.10
74633;BME280;63139;52.018;8.552;2023-03-29T09:40:22;100433.47;;;13.76;58.12
74633;BME280;63139;52.018;8.552;2023-03-29T09:43:02;100437.16;;;13.96;58.26
74633;BME280;63139;52.018;8.552;2023-03-29T09:45:31;100438.66;;;14.05;58.12
74633;BME280;63139;52.018;8.552;2023-03-29T09:48:07;100431.25;;;14.22;57.59
74633;BME280;63139;52.018;8.552;2023-03-29T09:50:39;100425.47;;;14.18;57.43
74633;BME280;63139;52.018;8.552;2023-03-29T09:53:10;100439.69;;;14.32;57.83
74633;BME280;63139;52.018;8.552;2023-03-29T09:55:44;100434.50;;;14.24;57.47
74633;BME280;63139;52.018;8.552;2023-03-29T09:58:29;100426.34;;;14.25;57.22
74633;BME280;63139;52.018;8.552;2023-03-29T10:01:00;100422.59;;;14.41;57.48
74633;BME280;63139;52.018;8.552;2023-03-29T10:03:31;100430.78;;;14.40;56.65
74633;BME280;63139;52.018;8.552;2023-03-29T10:06:11;100432.28;;;14.49;57.88
74633;BME280;63139;52.018;8.552;2023-03-29T10:08:50;100431.13;;;14.58;57.58
74633;BME280;63139;52.018;8.552;2023-03-29T10:11:29;100430.41;;;14.43;57.83
74633;BME280;63139;52.018;8.552;2023-03-29T10:14:00;100421.44;;;14.50;57.19
74633;BME280;63139;52.018;8.552;2023-03-29T10:16:33;100432.22;;;14.42;57.57
74633;BME280;63139;52.018;8.552;2023-03-29T10:19:15;100418.16;;;14.27;57.54
74633;BME280;63139;52.018;8.552;2023-03-29T10:21:46;100413.84;;;14.54;57.80
74633;BME280;63139;52.018;8.552;2023-03-29T10:24:18;100404.91;;;14.68;57.67
74633;BME280;63139;52.018;8.552;2023-03-29T10:26:46;100406.56;;;14.69;57.78
74633;BME280;63139;52.018;8.552;2023-03-29T10:29:17;100403.19;;;14.88;57.54
74633;BME280;63139;52.018;8.552;2023-03-29T10:31:45;100401.44;;;15.08;57.26
74633;BME280;63139;52.018;8.552;2023-03-29T10:34:15;100400.50;;;15.36;56.67
74633;BME280;63139;52.018;8.552;2023-03-29T10:36:45;100402.41;;;15.48;56.33
74633;BME280;63139;52.018;8.552;2023-03-29T10:39:17;100399.78;;;15.55;55.51
74633;BME280;63139;52.018;8.552;2023-03-29T10:41:49;100396.69;;;15.58;55.60
74633;BME280;63139;52.018;8.552;2023-03-29T10:44:26;100383.97;;;15.60;55.33
74633;BME280;63139;52.018;8.552;2023-03-29T10:47:07;100389.31;;;15.73;54.50
74633;BME280;63139;52.018;8.552;2023-03-29T10:49:43;100392.19;;;15.72;55.22
74633;BME280;63139;52.018;8.552;2023-03-29T10:52:14;100397.31;;;15.60;56.03
74633;BME280;63139;52.018;8.552;2023-03-29T10:54:43;100414.22;;;15.26;56.22
74633;BME280;63139;52.018;8.552;2023-03-29T10:57:13;100400.09;;;15.32;56.04
74633;BME280;63139;52.018;8.552;2023-03-29T10:59:48;100391.97;;;15.53;55.87
74633;BME280;63139;52.018;8.552;2023-03-29T11:02:53;100392.59;;;15.56;57.01
74633;BME280;63139;52.018;8.552;2023-03-29T11:05:33;100390.75;;;15.56;57.64
74633;BME280;63139;52.018;8.552;2023-03-29T11:11:02;100401.91;;;15.25;58.43
74633;BME280;63139;52.018;8.552;2023-03-29T11:13:39;100404.59;;;14.84;59.50
74633;BME280;63139;52.018;8.552;2023-03-29T11:16:19;100405.63;;;14.49;59.45
74633;BME280;63139;52.018;8.552;2023-03-29T11:19:23;100402.34;;;14.81;58.85
74633;BME280;63139;52.018;8.552;2023-03-29T11:22:00;100407.91;;;14.86;58.65
74633;BME280;63139;52.018;8.552;2023-03-29T11:24:41;100406.34;;;14.64;59.75
74633;BME280;63139;52.018;8.552;2023-03-29T11:27:21;100408.31;;;14.27;60.80
74633;BME280;63139;52.018;8.552;2023-03-29T11:30:03;100401.16;;;14.28;61.64
74633;BME280;63139;52.018;8.552;2023-03-29T11:32:40;100409.94;;;14.22;61.54
74633;BME280;63139;52.018;8.552;2023-03-29T11:35:25;100402.28;;;14.12;61.11
74633;BME280;63139;52.018;8.552;2023-03-29T11:38:02;100401.63;;;14.10;61.73
74633;BME280;63139;52.018;8.552;2023-03-29T11:40:43;100403.09;;;14.13;61.14
74633;BME280;63139;52.018;8.552;2023-03-29T11:43:17;100397.97;;;14.67;60.37
74633;BME280;63139;52.018;8.552;2023-03-29T11:45:51;100394.78;;;14.91;60.19
74633;BME280;63139;52.018;8.552;2023-03-29T11:48:23;100398.31;;;15.05;60.56
74633;BME280;63139;52.018;8.552;2023-03-29T11:50:55;100394.91;;;15.18;61.01
74633;BME280;63139;52.018;8.552;2023-03-29T11:53:30;100409.97;;;14.91;61.45
74633;BME280;63139;52.018;8.552;2023-03-29T11:56:09;100403.38;;;14.87;62.19
74633;BME280;63139;52.018;8.552;2023-03-29T11:58:41;100393.38;;;14.89;61.77
74633;BME280;63139;52.018;8.552;2023-03-29T12:01:13;100395.63;;;14.92;63.03
74633;BME280;63139;52.018;8.552;2023-03-29T12:03:48;100398.28;;;14.92;63.21
74633;BME280;63139;52.018;8.552;2023-03-29T12:06:21;100392.00;;;15.12;63.00
74633;BME280;63139;52.018;8.552;2023-03-29T12:08:53;100393.09;;;15.31;62.71
74633;BME280;63139;52.018;8.552;2023-03-29T12:11:27;100407.09;;;15.40;62.79
74633;BME280;63139;52.018;8.552;2023-03-29T12:13:59;100395.75;;;15.25;63.23
74633;BME280;63139;52.018;8.552;2023-03-29T12:16:33;100389.63;;;15.31;63.04
74633;BME280;63139;52.018;8.552;2023-03-29T12:19:05;100389.41;;;15.26;63.07
74633;BME280;63139;52.018;8.552;2023-03-29T12:21:37;100391.41;;;15.10;63.38
74633;BME280;63139;52.018;8.552;2023-03-29T12:24:11;100403.69;;;14.64;63.84
74633;BME280;63139;52.018;8.552;2023-03-29T12:26:52;100405.72;;;14.34;65.29
74633;BME280;63139;52.018;8.552;2023-03-29T12:29:46;100394.09;;;14.14;66.02
74633;BME280;63139;52.018;8.552;2023-03-29T12:32:32;100400.13;;;14.01;66.80
74633;BME280;63139;52.018;8.552;2023-03-29T12:35:27;100384.78;;;14.03;66.93
74633;BME280;63139;52.018;8.552;2023-03-29T12:38:19;100376.59;;;14.05;66.12
74633;BME280;63139;52.018;8.552;2023-03-29T12:41:14;100385.56;;;13.97;67.39
74633;BME280;63139;52.018;8.552;2023-03-29T12:44:03;100363.97;;;13.64;67.42
74633;BME280;63139;52.018;8.552;2023-03-29T12:46:39;100370.69;;;13.60;67.67
74633;BME280;63139;52.018;8.552;2023-03-29T12:49:10;100364.03;;;13.49;68.31
74633;BME280;63139;52.018;8.552;2023-03-29T12:51:41;100357.81;;;13.64;67.86
74633;BME280;63139;52.018;8.552;2023-03-29T12:54:13;100348.66;;;13.66;67.96
74633;BME280;63139;52.018;8.552;2023-03-29T12:56:55;100351.69;;;14.12;67.83
74633;BME280;63139;52.018;8.552;2023-03-29T12:59:32;100345.38;;;14.48;66.32
74633;BME280;63139;52.018;8.552;2023-03-29T13:02:26;100342.56;;;14.62;66.78
74633;BME280;63139;52.018;8.552;2023-03-29T13:05:00;100343.53;;;14.89;65.19
74633;BME280;63139;52.018;8.552;2023-03-29T13:07:42;100341.31;;;15.12;65.14
74633;BME280;63139;52.018;8.552;2023-03-29T13:10:33;100326.75;;;15.02;64.75
74633;BME280;63139;52.018;8.552;2023-03-29T13:13:16;100331.13;;;15.36;64.35
74633;BME280;63139;52.018;8.552;2023-03-29T13:15:46;100326.06;;;15.61;63.59
74633;BME280;63139;52.018;8.552;2023-03-29T13:18:35;100325.44;;;15.72;64.13
74633;BME280;63139;52.018;8.552;2023-03-29T13:21:15;100314.78;;;15.85;63.89
74633;BME280;63139;52.018;8.552;2023-03-29T13:23:50;100329.13;;;16.04;62.77
74633;BME280;63139;52.018;8.552;2023-03-29T13:26:38;100315.34;;;16.13;62.21
74633;BME280;63139;52.018;8.552;2023-03-29T13:29:42;100319.69;;;16.08;61.78
74633;BME280;63139;52.018;8.552;2023-03-29T13:32:26;100311.25;;;16.04;62.40
74633;BME280;63139;52.018;8.552;2023-03-29T13:35:02;100316.19;;;16.07;62.69
74633;BME280;63139;52.018;8.552;2023-03-29T13:37:40;100307.34;;;15.87;63.17
74633;BME280;63139;52.018;8.552;2023-03-29T13:40:31;100308.63;;;15.78;62.80
74633;BME280;63139;52.018;8.552;2023-03-29T13:43:07;100295.69;;;15.68;62.80